Woodgate, New York
Current Conditions -  °F | °C
As of 5:53 PM on Sunday 21 Dec 2014 (Local Time) from KRME Reporting Station
Overcast Overcast  
Wind Chill: -1°   Ceiling: 2800
Heat Index: -1°   Visibility: 10mi
Dew Point: -5°   Wind: 0mph
Humidity: 72%   Direction: NA
Pressure: 30.34"   Gusts: NA
Location:  43.52°N, 75.16°W
Report Text: KRME 212253Z 00000KT 10SM OVC028 M01/M05 A3034 RMK AO2 SLP280 T10061050
Loading
Personal Weather Stations






























Interactive Weather Map New forecast layout! Learn more

10-Day Weather Forecast

Advertisements
Track Severe Weather on mobile